createdAt,value
2022-12-22T00:01:49.701Z,408.35
2022-12-22T00:04:35.567Z,393.67
2022-12-22T00:07:20.925Z,381.13
2022-12-22T00:10:06.765Z,365.75
2022-12-22T00:12:52.565Z,427.30
2022-12-22T00:15:38.835Z,382.27
2022-12-22T00:18:24.892Z,357.60
2022-12-22T00:21:10.403Z,352.17
2022-12-22T00:23:56.049Z,377.67
2022-12-22T00:26:41.504Z,395.40
2022-12-22T00:29:33.413Z,393.42
2022-12-22T00:32:20.404Z,409.77
2022-12-22T00:35:06.519Z,383.88
2022-12-22T00:37:54.562Z,420.95
2022-12-22T00:40:44.932Z,391.85
2022-12-22T00:43:30.564Z,439.30
2022-12-22T00:46:17.345Z,535.17
2022-12-22T00:49:03.072Z,454.17
2022-12-22T00:51:49.555Z,401.52
2022-12-22T00:54:37.129Z,369.90
2022-12-22T00:57:23.092Z,400.15
2022-12-22T01:00:09.570Z,410.58
2022-12-22T01:02:55.156Z,429.17
2022-12-22T01:05:40.700Z,421.92
2022-12-22T01:08:29.383Z,419.67
2022-12-22T01:11:15.009Z,404.20
2022-12-22T01:14:00.503Z,388.52
2022-12-22T01:16:46.118Z,401.75
2022-12-22T01:19:31.611Z,359.83
2022-12-22T01:22:17.314Z,355.83
2022-12-22T01:25:03.772Z,333.63
2022-12-22T01:27:49.443Z,380.85
2022-12-22T01:30:35.111Z,407.30
2022-12-22T01:33:20.536Z,430.98
2022-12-22T01:36:06.230Z,322.05
2022-12-22T01:38:51.756Z,331.48
2022-12-22T01:41:39.792Z,331.10
2022-12-22T01:44:36.199Z,276.98
2022-12-22T01:47:46.334Z,284.50
2022-12-22T01:50:49.654Z,282.92
2022-12-22T01:53:39.139Z,278.60
2022-12-22T01:56:25.375Z,302.63
2022-12-22T01:59:14.248Z,297.52
2022-12-22T02:02:00.683Z,327.63
2022-12-22T02:04:50.990Z,312.25
2022-12-22T02:08:18.955Z,356.50
2022-12-22T02:11:04.444Z,312.63
2022-12-22T02:14:00.212Z,335.92
2022-12-22T02:16:53.832Z,326.85
2022-12-22T02:20:09.005Z,327.85
2022-12-22T02:22:58.334Z,408.30
2022-12-22T02:26:05.900Z,345.25
2022-12-22T02:28:51.853Z,384.60
2022-12-22T02:31:37.913Z,304.83
2022-12-22T02:34:23.332Z,356.40
2022-12-22T02:37:22.989Z,345.40
2022-12-22T02:40:21.951Z,348.87
2022-12-22T02:43:24.887Z,335.05
2022-12-22T02:46:33.482Z,379.95
2022-12-22T02:49:49.805Z,342.27
2022-12-22T02:52:45.850Z,323.35
2022-12-22T02:55:31.992Z,370.08
2022-12-22T02:58:20.550Z,315.92
2022-12-22T03:01:07.082Z,299.80
2022-12-22T03:03:52.708Z,335.00
2022-12-22T03:06:37.965Z,334.67
2022-12-22T03:09:23.336Z,323.60
2022-12-22T03:12:09.325Z,359.98
2022-12-22T03:14:54.772Z,341.75
2022-12-22T03:17:40.264Z,327.48
2022-12-22T03:20:26.312Z,317.42
2022-12-22T03:23:11.790Z,377.00
2022-12-22T03:25:52.297Z,363.05
2022-12-22T03:28:21.093Z,437.48
2022-12-22T03:31:00.672Z,331.30
2022-12-22T03:33:28.872Z,323.50
2022-12-22T03:35:55.714Z,376.20
2022-12-22T03:38:22.500Z,346.40
2022-12-22T03:40:49.379Z,337.63
2022-12-22T03:43:35.339Z,303.85
2022-12-22T03:46:29.318Z,351.75
2022-12-22T03:49:12.743Z,336.70
2022-12-22T03:51:50.967Z,283.42
2022-12-22T03:54:22.636Z,363.08
2022-12-22T03:56:49.927Z,333.38
2022-12-22T03:59:18.051Z,339.05
2022-12-22T04:01:48.359Z,304.80
2022-12-22T04:04:16.611Z,283.40
2022-12-22T04:06:44.016Z,289.48
2022-12-22T04:09:10.961Z,314.65
2022-12-22T04:11:56.097Z,273.67
2022-12-22T04:14:26.648Z,320.55
2022-12-22T04:16:58.309Z,290.35
2022-12-22T04:19:25.296Z,308.60
2022-12-22T04:21:52.107Z,320.88
2022-12-22T04:24:18.882Z,318.60
2022-12-22T04:26:45.771Z,310.52
2022-12-22T04:29:12.556Z,297.33
2022-12-22T04:31:39.438Z,381.50
2022-12-22T04:34:06.314Z,356.92
2022-12-22T04:36:33.143Z,325.40
2022-12-22T04:38:59.944Z,294.17
2022-12-22T04:41:26.817Z,306.45
2022-12-22T04:43:53.603Z,290.40
2022-12-22T04:46:20.511Z,367.73
2022-12-22T04:48:47.370Z,305.80
2022-12-22T04:51:14.121Z,312.48
2022-12-22T04:53:40.887Z,313.92
2022-12-22T04:56:09.017Z,323.05
2022-12-22T04:58:36.275Z,320.60
2022-12-22T05:01:11.321Z,327.73
2022-12-22T05:03:38.465Z,336.17
2022-12-22T05:06:05.988Z,293.63
2022-12-22T05:08:32.851Z,299.50
2022-12-22T05:10:59.589Z,272.08
2022-12-22T05:13:26.504Z,316.92
2022-12-22T05:15:53.350Z,322.20
2022-12-22T05:18:20.210Z,315.55
2022-12-22T05:20:46.987Z,300.63
2022-12-22T05:23:13.773Z,306.63
2022-12-22T05:25:40.626Z,306.77
2022-12-22T05:28:07.360Z,314.25
2022-12-22T05:30:34.199Z,267.27
2022-12-22T05:33:01.003Z,281.92
2022-12-22T05:35:27.823Z,262.83
2022-12-22T05:37:54.631Z,270.00
2022-12-22T05:40:21.390Z,272.92
2022-12-22T05:42:48.172Z,248.63
2022-12-22T05:45:17.936Z,256.13
2022-12-22T05:47:46.961Z,270.33
2022-12-22T05:50:15.375Z,275.98
2022-12-22T05:52:42.259Z,289.48
2022-12-22T05:55:10.149Z,269.73
2022-12-22T05:57:37.323Z,278.67
2022-12-22T06:00:06.838Z,292.27
2022-12-22T06:02:33.749Z,297.77
2022-12-22T06:05:00.734Z,292.15
2022-12-22T06:07:27.620Z,291.75
2022-12-22T06:09:54.448Z,292.17
2022-12-22T06:12:21.344Z,294.58
2022-12-22T06:14:48.201Z,306.30
2022-12-22T06:17:14.976Z,299.38
2022-12-22T06:19:41.758Z,293.73
2022-12-22T06:22:08.640Z,295.45
2022-12-22T06:24:35.581Z,301.38
2022-12-22T06:27:02.373Z,307.55
2022-12-22T06:29:29.166Z,312.63
2022-12-22T06:31:55.945Z,323.10
2022-12-22T06:34:22.897Z,361.42
2022-12-22T06:36:50.045Z,304.70
2022-12-22T06:39:17.378Z,327.77
2022-12-22T06:42:03.058Z,318.77
2022-12-22T06:44:30.482Z,315.35
2022-12-22T06:46:57.404Z,337.27
2022-12-22T06:49:24.267Z,345.73
2022-12-22T06:51:51.131Z,336.25
2022-12-22T06:54:23.944Z,365.10
2022-12-22T06:56:52.797Z,360.35
2022-12-22T06:59:19.716Z,387.55
2022-12-22T07:01:46.589Z,346.67
2022-12-22T07:04:19.670Z,374.58
2022-12-22T07:06:47.897Z,346.25
2022-12-22T07:09:14.931Z,327.25
2022-12-22T07:11:42.054Z,332.33
2022-12-22T07:14:08.903Z,327.80
2022-12-22T07:16:35.785Z,342.40
2022-12-22T07:19:02.806Z,356.70
2022-12-22T07:21:29.783Z,398.55
2022-12-22T07:23:56.614Z,367.83
2022-12-22T07:26:23.394Z,362.38
2022-12-22T07:28:50.241Z,410.45
2022-12-22T07:31:17.814Z,387.30
2022-12-22T07:33:44.694Z,378.48
2022-12-22T07:36:15.228Z,367.05
2022-12-22T07:38:44.734Z,382.02
2022-12-22T07:41:31.876Z,387.45
2022-12-22T07:44:00.203Z,367.08
2022-12-22T07:46:30.044Z,366.98
2022-12-22T07:49:16.067Z,354.13
2022-12-22T07:51:43.361Z,353.45
2022-12-22T07:54:13.370Z,372.00
2022-12-22T07:56:40.794Z,355.20
2022-12-22T07:59:08.530Z,357.98
2022-12-22T08:01:35.473Z,327.40
2022-12-22T08:04:02.422Z,361.63
2022-12-22T08:06:29.405Z,354.35
2022-12-22T08:08:56.196Z,326.98
2022-12-22T08:11:23.038Z,332.27
2022-12-22T08:13:49.858Z,340.13
2022-12-22T08:16:17.965Z,394.17
2022-12-22T08:18:44.890Z,350.88
2022-12-22T08:21:11.738Z,344.52
2022-12-22T08:23:41.710Z,368.45
2022-12-22T08:26:15.028Z,365.05
2022-12-22T08:28:48.812Z,359.83
2022-12-22T08:31:15.910Z,364.90
2022-12-22T08:33:43.057Z,363.00
2022-12-22T08:36:13.469Z,375.92
2022-12-22T08:38:41.698Z,425.95
2022-12-22T08:41:10.659Z,378.65
2022-12-22T08:43:37.421Z,379.08
2022-12-22T08:46:04.636Z,399.55
2022-12-22T08:48:32.656Z,375.25
2022-12-22T08:50:59.574Z,375.23
2022-12-22T08:54:02.460Z,375.45
2022-12-22T08:56:13.203Z,381.05
2022-12-22T08:58:40.268Z,375.30
2022-12-22T09:01:07.198Z,384.40
2022-12-22T09:03:34.115Z,379.33
2022-12-22T09:06:04.395Z,400.27
2022-12-22T09:08:33.581Z,379.67
2022-12-22T09:11:04.238Z,347.73
2022-12-22T09:15:58.016Z,344.05
2022-12-22T09:18:24.842Z,329.27
2022-12-22T09:20:55.708Z,369.98
2022-12-22T09:23:22.559Z,372.48
2022-12-22T09:25:49.444Z,359.00
2022-12-22T09:28:16.297Z,334.75
2022-12-22T09:30:43.270Z,345.77
2022-12-22T09:33:10.165Z,345.67
2022-12-22T09:35:41.610Z,361.13
2022-12-22T09:38:08.394Z,383.58
2022-12-22T09:40:35.429Z,371.80
2022-12-22T09:43:04.223Z,369.05
2022-12-22T09:45:33.518Z,370.67
2022-12-22T09:48:01.625Z,358.90
2022-12-22T09:50:30.530Z,345.25
2022-12-22T09:53:05.150Z,342.65
2022-12-22T09:55:44.840Z,323.85
2022-12-22T09:58:34.773Z,319.98
2022-12-22T10:01:40.422Z,322.00
2022-12-22T10:04:30.715Z,277.02
2022-12-22T10:07:22.539Z,270.98
2022-12-22T10:09:51.304Z,244.52
2022-12-22T10:12:24.167Z,266.35
2022-12-22T10:14:53.104Z,252.25
2022-12-22T10:17:31.511Z,256.33
2022-12-22T10:20:22.738Z,246.07
2022-12-22T10:23:18.182Z,248.93
2022-12-22T10:28:47.700Z,256.42
2022-12-22T10:31:14.503Z,249.63
2022-12-22T10:33:46.791Z,262.35
2022-12-22T10:36:19.753Z,269.05
2022-12-22T10:39:00.752Z,260.02
2022-12-22T10:41:34.802Z,248.68
2022-12-22T10:44:18.946Z,238.00
2022-12-22T10:46:51.796Z,231.98
2022-12-22T10:49:25.559Z,229.52
2022-12-22T10:52:12.151Z,229.20
2022-12-22T10:54:42.517Z,217.60
2022-12-22T10:57:16.475Z,240.23
2022-12-22T11:00:00.477Z,256.63
2022-12-22T11:02:38.460Z,234.63
2022-12-22T11:05:11.348Z,244.73
2022-12-22T11:07:44.285Z,236.60
2022-12-22T11:10:32.488Z,222.25
2022-12-22T11:13:08.025Z,203.75
2022-12-22T11:15:37.541Z,240.68
2022-12-22T11:18:13.007Z,237.82
2022-12-22T11:21:04.678Z,208.43
2022-12-22T11:23:50.653Z,201.00
2022-12-22T11:26:45.971Z,194.20
2022-12-22T11:29:32.377Z,188.15
2022-12-22T11:32:19.536Z,188.98
2022-12-22T11:35:09.916Z,186.48
2022-12-22T11:37:39.752Z,167.10
2022-12-22T11:40:30.597Z,171.88
2022-12-22T11:43:00.244Z,171.43
2022-12-22T11:45:44.244Z,173.43
2022-12-22T11:48:36.363Z,219.57
2022-12-22T11:51:28.338Z,151.70
2022-12-22T11:54:24.682Z,147.60
2022-12-22T11:57:03.676Z,152.63
2022-12-22T11:59:30.454Z,183.05
2022-12-22T12:02:19.018Z,193.05
2022-12-22T12:05:04.023Z,156.00
2022-12-22T12:07:50.714Z,163.85
2022-12-22T12:10:29.101Z,157.43
2022-12-22T12:13:01.673Z,176.88
2022-12-22T12:15:38.023Z,166.57
2022-12-22T12:18:41.015Z,150.27
2022-12-22T12:21:10.918Z,142.20
2022-12-22T12:24:10.189Z,148.02
2022-12-22T12:26:58.058Z,144.25
2022-12-22T12:29:37.195Z,145.38
2022-12-22T12:32:20.465Z,143.30
2022-12-22T12:35:05.175Z,151.27
2022-12-22T12:37:38.725Z,131.07
2022-12-22T12:40:33.015Z,146.20
2022-12-22T12:43:00.844Z,154.82
2022-12-22T12:45:35.000Z,157.20
2022-12-22T12:48:20.701Z,147.30
2022-12-22T12:50:49.068Z,149.27
2022-12-22T12:53:17.450Z,138.52
2022-12-22T12:55:50.202Z,146.77
2022-12-22T12:58:35.417Z,149.13
2022-12-22T13:01:04.023Z,135.27
2022-12-22T13:04:01.974Z,139.65
2022-12-22T13:06:50.949Z,138.80
2022-12-22T13:09:49.365Z,137.35
2022-12-22T13:12:34.502Z,125.38
2022-12-22T13:15:01.869Z,130.27
2022-12-22T13:17:38.230Z,128.57
2022-12-22T13:20:11.412Z,134.25
2022-12-22T13:22:38.516Z,139.77
2022-12-22T13:25:05.934Z,129.50
2022-12-22T13:27:32.876Z,124.07
2022-12-22T13:30:00.111Z,132.13
2022-12-22T13:32:34.538Z,118.53
2022-12-22T13:35:35.524Z,133.30
2022-12-22T13:38:03.766Z,123.22
2022-12-22T13:40:44.096Z,118.30
2022-12-22T13:43:16.566Z,121.30
2022-12-22T13:45:50.809Z,115.80
2022-12-22T13:48:19.737Z,124.07
2022-12-22T13:50:51.228Z,133.38
2022-12-22T13:53:58.723Z,129.85
2022-12-22T13:56:19.559Z,127.22
2022-12-22T13:58:51.055Z,136.30
2022-12-22T14:01:19.566Z,133.10
2022-12-22T14:04:00.089Z,120.30
2022-12-22T14:06:40.307Z,129.73
2022-12-22T14:09:16.067Z,122.45
2022-12-22T14:11:52.518Z,128.00
2022-12-22T14:14:24.683Z,131.88
2022-12-22T14:16:53.955Z,134.88
2022-12-22T14:19:24.737Z,129.35
2022-12-22T14:22:02.342Z,136.18
2022-12-22T14:24:38.038Z,131.00
2022-12-22T14:27:06.773Z,138.73
2022-12-22T14:29:33.817Z,129.13
2022-12-22T14:32:02.825Z,143.45
2022-12-22T14:34:32.974Z,140.40
2022-12-22T14:37:01.914Z,141.57
2022-12-22T14:39:31.809Z,132.07
2022-12-22T14:42:01.727Z,142.07
2022-12-22T14:44:34.420Z,154.02
2022-12-22T14:47:01.149Z,140.77
2022-12-22T14:49:28.135Z,149.70
2022-12-22T14:52:06.146Z,161.75
2022-12-22T14:54:33.170Z,149.77
2022-12-22T14:57:15.661Z,153.05
2022-12-22T15:00:01.730Z,141.23
2022-12-22T15:02:40.327Z,143.68
2022-12-22T15:05:25.246Z,149.40
2022-12-22T15:08:05.219Z,147.88
2022-12-22T15:10:44.275Z,141.90
2022-12-22T15:13:18.827Z,147.10
2022-12-22T15:15:45.700Z,159.20
2022-12-22T15:18:15.274Z,157.30
2022-12-22T15:20:45.322Z,166.88
2022-12-22T15:23:16.665Z,169.68
2022-12-22T15:25:43.824Z,172.70
2022-12-22T15:28:10.755Z,162.88
2022-12-22T15:30:38.183Z,171.88
2022-12-22T15:33:09.771Z,156.35
2022-12-22T15:35:37.796Z,163.27
2022-12-22T15:38:14.445Z,151.90
2022-12-22T15:40:41.956Z,160.48
2022-12-22T15:43:28.868Z,156.05
2022-12-22T15:45:58.964Z,160.90
2022-12-22T15:48:30.036Z,160.70
2022-12-22T15:50:57.590Z,159.80
2022-12-22T15:53:24.598Z,149.65
2022-12-22T15:55:54.635Z,151.73
2022-12-22T15:58:29.039Z,159.68
2022-12-22T16:00:56.021Z,149.13
2022-12-22T16:03:23.018Z,146.93
2022-12-22T16:05:50.197Z,153.82
2022-12-22T16:08:22.697Z,142.13
2022-12-22T16:10:49.958Z,147.90
2022-12-22T16:13:25.798Z,145.73
2022-12-22T16:15:53.375Z,165.93
2022-12-22T16:18:20.174Z,139.77
2022-12-22T16:20:50.160Z,138.05
2022-12-22T16:23:22.768Z,144.77
2022-12-22T16:25:55.541Z,149.50
2022-12-22T16:28:25.981Z,149.27
2022-12-22T16:30:53.388Z,144.68
2022-12-22T16:33:20.498Z,147.02
2022-12-22T16:35:47.692Z,143.95
2022-12-22T16:38:18.461Z,140.10
2022-12-22T16:40:49.215Z,121.18
2022-12-22T16:43:51.106Z,138.43
2022-12-22T16:46:21.004Z,133.73
2022-12-22T16:48:59.811Z,139.52
2022-12-22T16:51:30.000Z,145.13
2022-12-22T16:53:56.825Z,145.80
2022-12-22T16:56:27.146Z,146.00
2022-12-22T16:58:54.040Z,142.88
2022-12-22T17:01:47.300Z,136.55
2022-12-22T17:04:21.742Z,178.75
2022-12-22T17:06:50.701Z,163.25
2022-12-22T17:09:24.586Z,154.20
2022-12-22T17:11:54.334Z,142.90
2022-12-22T17:14:37.266Z,148.77
2022-12-22T17:17:09.307Z,154.07
2022-12-22T17:19:37.443Z,140.20
2022-12-22T17:22:06.382Z,148.80
2022-12-22T17:24:35.096Z,151.82
2022-12-22T17:27:07.125Z,154.25
2022-12-22T17:29:37.496Z,169.57
2022-12-22T17:32:07.859Z,183.10
2022-12-22T17:34:38.188Z,163.10
2022-12-22T17:37:18.367Z,183.68
2022-12-22T17:39:47.223Z,178.32
2022-12-22T17:42:29.083Z,169.70
2022-12-22T17:44:56.516Z,169.77
2022-12-22T17:47:33.432Z,163.20
2022-12-22T17:50:03.077Z,149.77
2022-12-22T17:52:33.580Z,147.15
2022-12-22T17:55:00.574Z,147.20
2022-12-22T17:57:32.916Z,143.40
2022-12-22T18:00:00.601Z,155.05
2022-12-22T18:02:29.601Z,135.68
2022-12-22T18:04:56.678Z,144.35
2022-12-22T18:07:24.752Z,152.95
2022-12-22T18:09:56.374Z,158.52
2022-12-22T18:12:27.333Z,158.27
2022-12-22T18:14:54.265Z,137.48
2022-12-22T18:17:33.190Z,141.65
2022-12-22T18:20:02.410Z,129.13
2022-12-22T18:22:29.712Z,121.60
2022-12-22T18:24:57.170Z,124.07
2022-12-22T18:27:24.355Z,117.00
2022-12-22T18:29:51.266Z,121.28
2022-12-22T18:32:26.276Z,111.43
2022-12-22T18:34:54.242Z,110.82
2022-12-22T18:37:21.286Z,108.47
2022-12-22T18:39:48.154Z,114.03
2022-12-22T18:42:24.031Z,110.10
2022-12-22T18:44:51.494Z,116.72
2022-12-22T18:47:18.913Z,117.53
2022-12-22T18:49:46.098Z,120.72
2022-12-22T18:52:22.472Z,130.05
2022-12-22T18:54:49.818Z,138.63
2022-12-22T18:57:18.715Z,133.75
2022-12-22T18:59:47.549Z,150.82
2022-12-22T19:02:28.045Z,144.20
2022-12-22T19:04:56.251Z,129.40
2022-12-22T19:07:25.013Z,118.68
2022-12-22T19:09:52.121Z,143.82
2022-12-22T19:12:23.161Z,130.75
2022-12-22T19:14:53.591Z,118.28
2022-12-22T19:17:23.919Z,121.28
2022-12-22T19:19:50.793Z,120.90
2022-12-22T19:22:17.581Z,125.60
2022-12-22T19:24:44.977Z,115.40
2022-12-22T19:27:24.381Z,120.13
2022-12-22T19:30:02.575Z,113.57
2022-12-22T19:32:33.174Z,122.55
2022-12-22T19:35:00.071Z,119.85
2022-12-22T19:37:27.103Z,114.25
2022-12-22T19:39:53.901Z,113.60
2022-12-22T19:42:23.332Z,105.88
2022-12-22T19:44:50.195Z,120.63
2022-12-22T19:47:24.277Z,120.80
2022-12-22T19:49:51.054Z,109.18
2022-12-22T19:52:17.928Z,103.35
2022-12-22T19:54:44.745Z,107.57
2022-12-22T19:57:19.535Z,115.28
2022-12-22T19:59:49.744Z,115.80
2022-12-22T20:02:28.556Z,121.60
2022-12-22T20:04:56.426Z,117.90
2022-12-22T20:07:25.849Z,125.63
2022-12-22T20:09:52.788Z,133.50
2022-12-22T20:12:26.270Z,122.35
2022-12-22T20:14:53.588Z,129.52
2022-12-22T20:17:20.795Z,134.55
2022-12-22T20:19:47.938Z,131.65
2022-12-22T20:22:20.453Z,131.13
2022-12-22T20:24:49.875Z,143.68
2022-12-22T20:27:31.573Z,136.20
2022-12-22T20:29:59.404Z,138.32
2022-12-22T20:32:28.250Z,127.25
2022-12-22T20:34:55.824Z,135.63
2022-12-22T20:37:22.680Z,136.20
2022-12-22T20:39:49.522Z,144.48
2022-12-22T20:42:21.833Z,133.68
2022-12-22T20:45:03.132Z,140.50
2022-12-22T20:47:32.470Z,141.30
2022-12-22T20:49:59.555Z,135.52
2022-12-22T20:52:26.383Z,138.48
2022-12-22T20:54:53.236Z,139.23
2022-12-22T20:57:22.722Z,127.72
2022-12-22T20:59:57.052Z,121.03
2022-12-22T21:02:27.649Z,88.32
2022-12-22T21:04:54.985Z,117.63
2022-12-22T21:07:21.974Z,136.45
2022-12-22T21:09:48.871Z,133.88
2022-12-22T21:12:15.721Z,137.23
2022-12-22T21:14:42.596Z,146.35
2022-12-22T21:17:17.082Z,141.10
2022-12-22T21:19:44.337Z,143.40
2022-12-22T21:22:12.765Z,138.70
2022-12-22T21:24:41.857Z,135.68
2022-12-22T21:27:16.670Z,140.70
2022-12-22T21:29:43.670Z,99.50
2022-12-22T21:32:15.377Z,87.40
2022-12-22T21:34:42.715Z,85.78
2022-12-22T21:37:18.671Z,85.13
2022-12-22T21:39:46.075Z,77.13
2022-12-22T21:42:20.144Z,77.47
2022-12-22T21:44:51.806Z,79.10
2022-12-22T21:47:22.193Z,84.47
2022-12-22T21:49:52.642Z,81.78
2022-12-22T21:52:19.556Z,86.47
2022-12-22T21:54:46.503Z,79.60
2022-12-22T21:57:21.185Z,81.35
2022-12-22T21:59:52.544Z,85.47
2022-12-22T22:02:21.135Z,82.35
2022-12-22T22:04:54.829Z,85.50
2022-12-22T22:07:22.339Z,79.53
2022-12-22T22:09:49.275Z,77.38
2022-12-22T22:12:36.448Z,80.57
2022-12-22T22:15:13.563Z,73.47
2022-12-22T22:17:40.989Z,78.65
2022-12-22T22:20:13.329Z,78.65
2022-12-22T22:22:40.600Z,76.05
2022-12-22T22:25:08.341Z,67.25
2022-12-22T22:27:35.139Z,67.82
2022-12-22T22:30:03.359Z,66.72
2022-12-22T22:32:30.296Z,67.35
2022-12-22T22:34:57.191Z,68.60
2022-12-22T22:37:24.048Z,68.32
2022-12-22T22:39:51.908Z,69.32
2022-12-22T22:42:19.577Z,68.70
2022-12-22T22:44:46.824Z,71.70
2022-12-22T22:47:13.675Z,63.60
2022-12-22T22:49:40.549Z,68.47
2022-12-22T22:52:07.437Z,68.70
2022-12-22T22:54:34.301Z,64.63
2022-12-22T22:57:01.149Z,60.83
2022-12-22T22:59:28.095Z,64.57
2022-12-22T23:01:55.147Z,66.65
2022-12-22T23:04:22.107Z,59.83
2022-12-22T23:06:49.125Z,61.63
2022-12-22T23:09:15.943Z,57.90
2022-12-22T23:11:43.185Z,53.97
2022-12-22T23:14:10.284Z,56.45
2022-12-22T23:16:38.597Z,58.22
2022-12-22T23:19:07.839Z,58.88
2022-12-22T23:21:37.470Z,58.88
2022-12-22T23:24:04.475Z,55.83
2022-12-22T23:26:34.033Z,66.30
2022-12-22T23:29:04.248Z,57.13
2022-12-22T23:31:32.904Z,64.47
2022-12-22T23:34:00.114Z,56.97
2022-12-22T23:36:27.144Z,60.15
2022-12-22T23:38:54.149Z,66.97
2022-12-22T23:41:23.450Z,61.25
2022-12-22T23:43:50.782Z,52.00
2022-12-22T23:46:18.169Z,57.08
2022-12-22T23:48:49.749Z,53.88
2022-12-22T23:51:18.370Z,56.90
2022-12-22T23:53:45.323Z,57.30
2022-12-22T23:56:12.650Z,56.75
2022-12-22T23:58:39.764Z,63.22
